Time;durP1;ratioP1;P1;durP2;ratioP2;P2;SDS_P1;SDS_P2;PMS_P1;PMS_P2;Temp;Humidity;BMP_temperature;BMP_pressure;BME280_temperature;BME280_humidity;BME280_pressure;Samples;Min_cycle;Max_cycle;Signal;HPM_P1;HPM_P2
2024/01/04 00:00:28;;;;;;;6.00;0.55;;;9.50;99.90;;;;;;4976878;28;20515;-75
2024/01/04 00:02:53;;;;;;;1.35;0.40;;;9.50;99.90;;;;;;4975867;28;20030;-76
2024/01/04 00:05:19;;;;;;;1.98;0.50;;;9.50;99.90;;;;;;4976397;28;20019;-76
2024/01/04 00:07:45;;;;;;;2.53;0.40;;;9.60;99.90;;;;;;4976267;28;20493;-76
2024/01/04 00:10:13;;;;;;;2.58;0.60;;;9.60;99.90;;;;;;4959426;28;20034;-75
2024/01/04 00:12:39;;;;;;;3.13;0.70;;;9.60;99.90;;;;;;4976556;28;20038;-76
2024/01/04 00:15:05;;;;;;;1.83;0.40;;;9.60;99.90;;;;;;4974867;28;20392;-76
2024/01/04 00:17:31;;;;;;;3.30;0.40;;;9.70;99.90;;;;;;4976427;28;20026;-75
2024/01/04 00:19:57;;;;;;;3.97;0.90;;;9.70;99.90;;;;;;4975926;28;20057;-76
2024/01/04 00:22:23;;;;;;;5.93;0.60;;;9.60;99.90;;;;;;4959206;28;20066;-76
2024/01/04 00:24:49;;;;;;;2.15;0.52;;;9.60;99.90;;;;;;4974745;28;20380;-76
2024/01/04 00:27:15;;;;;;;2.80;0.65;;;9.70;99.90;;;;;;4975168;28;20023;-75
2024/01/04 00:29:42;;;;;;;4.35;0.75;;;9.60;99.90;;;;;;4958772;28;20065;-76
2024/01/04 00:32:09;;;;;;;5.05;1.00;;;9.60;99.90;;;;;;4976118;28;20484;-76
2024/01/04 00:34:34;;;;;;;3.60;0.50;;;9.60;99.90;;;;;;4959041;28;20189;-75
2024/01/04 00:37:00;;;;;;;3.28;0.70;;;9.70;99.90;;;;;;4975291;28;20532;-75
2024/01/04 00:39:26;;;;;;;4.13;0.50;;;9.60;99.90;;;;;;4976172;28;20440;-75
2024/01/04 00:41:53;;;;;;;6.07;0.80;;;9.60;99.90;;;;;;4974383;28;20073;-75
2024/01/04 00:44:19;;;;;;;3.50;1.00;;;9.60;99.90;;;;;;4958323;28;20034;-76
2024/01/04 00:46:44;;;;;;;1.80;0.50;;;9.70;99.90;;;;;;4975466;28;20034;-76
2024/01/04 00:49:10;;;;;;;3.63;0.63;;;9.60;99.90;;;;;;4958500;28;20456;-76
2024/01/04 00:51:36;;;;;;;3.28;0.55;;;9.60;99.90;;;;;;4976236;28;20034;-75
2024/01/04 00:54:02;;;;;;;0.95;0.60;;;9.60;99.90;;;;;;4975385;28;20464;-76
2024/01/04 00:56:35;;;;;;;5.32;1.30;;;9.60;99.90;;;;;;4975831;28;20034;-75
2024/01/04 00:59:01;;;;;;;1.63;0.45;;;9.50;99.90;;;;;;4957632;28;20034;-75
2024/01/04 01:01:27;;;;;;;2.58;0.60;;;9.50;99.90;;;;;;4974027;28;20039;-75
2024/01/04 01:03:53;;;;;;;6.45;0.85;;;9.60;99.90;;;;;;4957817;28;20563;-76
2024/01/04 01:06:18;;;;;;;6.35;0.63;;;9.60;99.90;;;;;;4958252;28;20050;-75
2024/01/04 01:08:44;;;;;;;7.13;0.98;;;9.60;99.90;;;;;;4957976;28;20493;-91
2024/01/04 01:11:10;;;;;;;4.07;0.70;;;9.60;99.90;;;;;;4958063;28;20023;-76
2024/01/04 01:13:35;;;;;;;5.85;0.65;;;9.60;99.90;;;;;;4958175;28;20034;-76
2024/01/04 01:16:01;;;;;;;2.95;0.50;;;9.60;99.90;;;;;;4957689;28;20469;-76
2024/01/04 01:18:27;;;;;;;3.53;0.45;;;9.60;99.90;;;;;;4958038;28;20031;-76
2024/01/04 01:20:54;;;;;;;2.88;0.52;;;9.60;99.90;;;;;;4974469;28;20361;-76
2024/01/04 01:23:20;;;;;;;2.90;0.50;;;9.60;99.90;;;;;;4957996;28;20023;-75
2024/01/04 01:25:46;;;;;;;4.20;0.70;;;9.60;99.90;;;;;;4974489;28;20113;-81
2024/01/04 01:28:11;;;;;;;4.03;0.55;;;9.60;99.90;;;;;;4957769;28;20027;-76
2024/01/04 01:30:37;;;;;;;2.70;0.68;;;9.60;99.90;;;;;;4957939;28;20038;-76
2024/01/04 01:33:03;;;;;;;1.40;0.30;;;9.60;99.90;;;;;;4957251;28;20392;-76
2024/01/04 01:35:28;;;;;;;2.80;0.50;;;9.60;99.90;;;;;;4975144;28;20074;-76
2024/01/04 01:37:54;;;;;;;3.13;0.43;;;9.60;99.90;;;;;;4974044;28;20051;-76
2024/01/04 01:40:20;;;;;;;3.28;0.50;;;9.60;99.90;;;;;;4973880;28;20031;-76
2024/01/04 01:42:49;;;;;;;2.63;0.60;;;9.60;99.90;;;;;;4974653;28;20114;-93
2024/01/04 01:45:16;;;;;;;2.85;0.40;;;9.60;99.90;;;;;;4957532;28;20034;-76
2024/01/04 01:47:42;;;;;;;1.58;0.47;;;9.60;99.90;;;;;;4973634;28;20137;-76
2024/01/04 01:50:08;;;;;;;2.35;0.20;;;9.60;99.90;;;;;;4957017;28;20038;-76
2024/01/04 01:52:36;;;;;;;2.42;0.60;;;9.60;99.90;;;;;;4974698;28;20093;-76
2024/01/04 01:55:02;;;;;;;3.00;0.50;;;9.70;99.90;;;;;;4956925;28;20027;-76
2024/01/04 01:57:31;;;;;;;1.85;0.47;;;9.70;99.90;;;;;;4957298;28;20027;-76
2024/01/04 01:59:57;;;;;;;1.05;0.32;;;9.70;99.90;;;;;;4956900;28;20046;-76
2024/01/04 02:02:23;;;;;;;2.53;0.35;;;9.70;99.90;;;;;;4974277;28;20472;-76
2024/01/04 02:04:48;;;;;;;1.90;0.30;;;9.70;99.90;;;;;;4956643;28;20031;-77
2024/01/04 02:07:14;;;;;;;1.45;0.52;;;9.70;99.90;;;;;;4973420;28;20031;-76
2024/01/04 02:09:39;;;;;;;2.28;0.50;;;9.70;99.90;;;;;;4974208;28;20053;-76
2024/01/04 02:12:06;;;;;;;0.80;0.17;;;9.70;99.90;;;;;;4973452;28;20031;-76
2024/01/04 02:14:32;;;;;;;1.10;0.22;;;9.70;99.90;;;;;;4956867;28;20027;-76
2024/01/04 02:16:58;;;;;;;2.42;0.30;;;9.60;99.90;;;;;;4973843;28;20031;-76
2024/01/04 02:19:26;;;;;;;0.65;0.30;;;9.70;99.90;;;;;;4974322;28;20033;-77
2024/01/04 02:21:51;;;;;;;1.27;0.70;;;9.60;99.90;;;;;;4973345;28;20034;-76
2024/01/04 02:24:17;;;;;;;2.67;0.30;;;9.60;99.90;;;;;;4956899;28;20391;-76
2024/01/04 02:26:43;;;;;;;1.27;0.30;;;9.60;99.90;;;;;;4973029;28;20081;-76
2024/01/04 02:29:08;;;;;;;1.63;0.40;;;9.60;99.90;;;;;;4972374;28;20258;-76
2024/01/04 02:31:34;;;;;;;1.30;0.20;;;9.60;99.90;;;;;;4956780;28;20042;-76
2024/01/04 02:33:59;;;;;;;1.15;0.45;;;9.50;99.90;;;;;;4956338;28;20432;-76
2024/01/04 02:36:25;;;;;;;2.05;0.30;;;9.50;99.90;;;;;;4972761;28;20027;-77
2024/01/04 02:38:51;;;;;;;2.15;0.43;;;9.40;99.90;;;;;;4956378;28;20026;-76
2024/01/04 02:41:16;;;;;;;3.65;0.40;;;9.40;99.90;;;;;;4973941;28;20404;-76
2024/01/04 02:43:42;;;;;;;1.80;0.40;;;9.40;99.90;;;;;;4956596;28;20117;-76
2024/01/04 02:46:07;;;;;;;2.90;0.35;;;9.40;99.90;;;;;;4956165;28;20037;-76
2024/01/04 02:48:33;;;;;;;0.85;0.30;;;9.30;99.90;;;;;;4972606;28;20031;-76
2024/01/04 02:50:59;;;;;;;3.67;0.40;;;9.40;99.90;;;;;;4973502;28;20101;-76
2024/01/04 02:53:24;;;;;;;2.67;0.32;;;9.40;99.90;;;;;;4956542;28;20042;-76
2024/01/04 02:55:50;;;;;;;3.42;0.52;;;9.40;99.90;;;;;;4956693;28;20023;-76
2024/01/04 02:58:16;;;;;;;2.03;0.40;;;9.40;99.90;;;;;;4973804;28;20038;-76
2024/01/04 03:00:41;;;;;;;0.22;0.22;;;9.40;99.90;;;;;;4956610;28;20093;-76
2024/01/04 03:03:07;;;;;;;1.05;0.40;;;9.40;99.90;;;;;;4972048;28;20031;-76
2024/01/04 03:05:32;;;;;;;3.95;0.40;;;9.40;99.90;;;;;;4956469;28;20095;-75
2024/01/04 03:07:58;;;;;;;2.60;0.70;;;9.40;99.90;;;;;;4972154;28;20065;-76
2024/01/04 03:10:24;;;;;;;1.05;0.40;;;9.40;99.90;;;;;;4956427;28;20031;-76
2024/01/04 03:12:49;;;;;;;2.80;0.47;;;9.40;99.90;;;;;;4956523;28;20034;-76
2024/01/04 03:15:15;;;;;;;2.97;0.60;;;9.40;99.90;;;;;;4973235;28;20526;-76
2024/01/04 03:17:41;;;;;;;3.90;0.82;;;9.30;99.90;;;;;;4972429;28;20034;-76
2024/01/04 03:20:07;;;;;;;2.90;0.40;;;9.30;99.90;;;;;;4955958;28;20114;-76
2024/01/04 03:22:32;;;;;;;2.85;0.52;;;9.30;99.90;;;;;;4956192;28;20034;-76
2024/01/04 03:24:58;;;;;;;3.05;0.60;;;9.30;99.90;;;;;;4958303;28;20035;-76
2024/01/04 03:27:23;;;;;;;4.22;0.70;;;9.40;99.90;;;;;;4977415;28;20027;-76
2024/01/04 03:29:50;;;;;;;4.10;0.40;;;9.40;99.90;;;;;;4959827;28;20369;-75
2024/01/04 03:32:16;;;;;;;1.73;0.50;;;9.40;99.90;;;;;;4959485;28;20034;-76
2024/01/04 03:34:42;;;;;;;1.45;0.73;;;9.40;99.90;;;;;;4975697;28;20094;-76
2024/01/04 03:37:07;;;;;;;3.67;0.70;;;9.40;99.90;;;;;;4976694;28;20066;-76
2024/01/04 03:39:33;;;;;;;4.78;0.70;;;9.50;99.90;;;;;;4959474;28;20034;-76
2024/01/04 03:41:58;;;;;;;4.65;0.82;;;9.50;99.90;;;;;;4959292;28;20041;-76
2024/01/04 03:44:24;;;;;;;3.72;0.70;;;9.50;99.90;;;;;;4975940;28;20456;-76
2024/01/04 03:46:49;;;;;;;3.53;0.70;;;9.50;99.90;;;;;;4959706;28;20363;-76
2024/01/04 03:49:15;;;;;;;2.40;0.60;;;9.50;99.90;;;;;;4976726;28;20548;-76
2024/01/04 03:51:41;;;;;;;5.78;0.68;;;9.50;99.90;;;;;;4975909;28;20023;-76
2024/01/04 03:54:06;;;;;;;2.08;0.70;;;9.50;99.90;;;;;;4976461;28;20026;-76
2024/01/04 03:56:32;;;;;;;2.45;0.57;;;9.60;99.90;;;;;;4976916;28;20460;-76
2024/01/04 03:58:57;;;;;;;3.53;0.70;;;9.60;99.90;;;;;;4975167;28;20089;-76
2024/01/04 04:01:23;;;;;;;4.95;0.80;;;9.60;99.90;;;;;;4976815;28;20034;-76
2024/01/04 04:03:48;;;;;;;3.58;0.60;;;9.60;99.90;;;;;;4959348;28;20049;-75
2024/01/04 04:06:18;;;;;;;3.17;0.70;;;9.60;99.90;;;;;;4976300;28;20678;-76
2024/01/04 04:08:43;;;;;;;2.40;0.57;;;9.60;99.90;;;;;;4959243;28;20121;-76
2024/01/04 04:11:18;;;;;;;8.15;1.25;;;9.60;99.90;;;;;;4974887;28;20576;-76
2024/01/04 04:13:44;;;;;;;6.60;1.00;;;9.60;99.90;;;;;;4975401;28;20038;-76
2024/01/04 04:16:10;;;;;;;5.05;0.70;;;9.70;99.90;;;;;;4974771;28;20031;-76
2024/01/04 04:18:35;;;;;;;5.88;0.95;;;9.60;99.90;;;;;;4959058;28;20031;-75
2024/01/04 04:21:01;;;;;;;3.00;0.70;;;9.60;99.90;;;;;;4976084;28;20443;-76
2024/01/04 04:23:27;;;;;;;5.43;0.68;;;9.60;99.90;;;;;;4976406;28;20037;-76
2024/01/04 04:25:53;;;;;;;4.50;0.70;;;9.60;99.90;;;;;;4976454;28;20054;-76
2024/01/04 04:28:18;;;;;;;6.68;0.93;;;9.60;99.90;;;;;;4976169;28;20461;-76
2024/01/04 04:30:44;;;;;;;4.38;0.70;;;9.60;99.90;;;;;;4958961;28;20065;-76
2024/01/04 04:33:10;;;;;;;3.70;0.63;;;9.60;99.90;;;;;;4958505;28;20486;-76
2024/01/04 04:35:35;;;;;;;2.58;0.60;;;9.60;99.90;;;;;;4975533;28;20027;-75
2024/01/04 04:38:01;;;;;;;2.65;0.73;;;9.50;99.90;;;;;;4975721;28;20385;-75
2024/01/04 04:40:26;;;;;;;3.05;0.70;;;9.50;99.90;;;;;;4958820;28;20026;-76
2024/01/04 04:42:52;;;;;;;5.32;0.70;;;9.60;99.90;;;;;;4976109;28;20038;-76
2024/01/04 04:45:17;;;;;;;5.18;0.68;;;9.60;99.90;;;;;;4958306;28;20039;-76
2024/01/04 04:47:43;;;;;;;3.53;0.70;;;9.60;99.90;;;;;;4975626;28;20031;-76
2024/01/04 04:50:09;;;;;;;6.60;0.75;;;9.60;99.90;;;;;;4958154;28;20053;-76
2024/01/04 04:52:34;;;;;;;5.25;0.60;;;9.50;99.90;;;;;;4958730;28;20039;-75
2024/01/04 04:55:00;;;;;;;4.47;1.00;;;9.60;99.90;;;;;;4974107;28;20037;-76
2024/01/04 04:57:25;;;;;;;5.93;0.70;;;9.60;99.90;;;;;;4975945;28;20157;-76
2024/01/04 04:59:51;;;;;;;8.73;0.80;;;9.60;99.90;;;;;;4958457;28;20042;-76
2024/01/04 05:02:17;;;;;;;4.25;0.75;;;9.50;99.90;;;;;;4974937;28;20473;-76
2024/01/04 05:04:43;;;;;;;3.30;0.60;;;9.50;99.90;;;;;;4975681;28;20045;-76
2024/01/04 05:07:09;;;;;;;2.50;0.63;;;9.50;99.90;;;;;;4957814;28;20023;-76
2024/01/04 05:09:35;;;;;;;5.60;0.70;;;9.50;99.90;;;;;;4974554;28;20033;-76
2024/01/04 05:12:00;;;;;;;4.00;0.80;;;9.50;99.90;;;;;;4975049;28;20455;-76
2024/01/04 05:14:26;;;;;;;4.97;1.05;;;9.50;99.90;;;;;;4975459;28;20026;-76
2024/01/04 05:16:51;;;;;;;6.07;0.82;;;9.50;99.90;;;;;;4958018;28;20031;-75
2024/01/04 05:19:17;;;;;;;6.05;1.00;;;9.60;99.90;;;;;;4974991;28;20034;-76
2024/01/04 05:21:43;;;;;;;7.40;1.50;;;9.60;99.90;;;;;;4975042;28;20026;-76
2024/01/04 05:24:08;;;;;;;3.83;0.80;;;9.60;99.90;;;;;;4973365;28;20043;-75
2024/01/04 05:26:34;;;;;;;6.25;0.90;;;9.60;99.90;;;;;;4975198;28;20031;-76
2024/01/04 05:29:00;;;;;;;3.65;0.63;;;9.60;99.90;;;;;;4957801;28;20107;-93
2024/01/04 05:31:25;;;;;;;6.28;1.23;;;9.60;99.90;;;;;;4974248;28;20034;-75
2024/01/04 05:33:51;;;;;;;4.22;0.60;;;9.60;99.90;;;;;;4975125;28;20380;-76
2024/01/04 05:36:17;;;;;;;5.22;0.70;;;9.60;99.90;;;;;;4974759;28;20062;-76
2024/01/04 05:38:42;;;;;;;10.93;2.45;;;9.60;99.90;;;;;;4954027;29;20103;-75
2024/01/04 05:41:08;;;;;;;3.78;0.55;;;9.60;99.90;;;;;;4954029;28;20118;-76
2024/01/04 05:43:34;;;;;;;5.53;0.80;;;9.60;99.90;;;;;;4954506;29;20031;-76
2024/01/04 05:46:04;;;;;;;3.47;0.73;;;9.60;99.90;;;;;;4955848;28;20035;-76
2024/01/04 05:48:29;;;;;;;2.90;0.63;;;9.60;99.90;;;;;;4954417;28;20027;-76
2024/01/04 05:50:55;;;;;;;4.30;0.95;;;9.70;99.90;;;;;;4955883;28;20034;-75
2024/01/04 05:53:21;;;;;;;2.53;1.20;;;9.60;99.90;;;;;;4955052;28;20202;-76
2024/01/04 05:55:46;;;;;;;4.18;0.80;;;9.70;99.90;;;;;;4954417;28;20023;-76
2024/01/04 05:58:12;;;;;;;4.72;1.42;;;9.60;99.90;;;;;;4953639;28;20027;-76
2024/01/04 06:00:37;;;;;;;7.18;1.20;;;9.60;99.90;;;;;;4954219;28;20031;-75
2024/01/04 06:03:03;;;;;;;3.85;1.02;;;9.60;99.90;;;;;;4953528;28;20028;-76
2024/01/04 06:05:29;;;;;;;7.07;0.80;;;9.70;99.90;;;;;;4955421;28;20146;-76
2024/01/04 06:07:55;;;;;;;7.10;1.00;;;9.60;99.90;;;;;;4955316;28;20098;-76
2024/01/04 06:10:20;;;;;;;7.72;1.33;;;9.60;99.90;;;;;;4953564;28;20024;-76
2024/01/04 06:12:46;;;;;;;8.60;0.95;;;9.60;99.90;;;;;;4955215;28;20110;-76
2024/01/04 06:15:11;;;;;;;4.38;0.75;;;9.70;99.90;;;;;;4954620;28;20100;-76
2024/01/04 06:17:37;;;;;;;4.20;1.00;;;9.60;99.90;;;;;;4953834;29;20034;-76
2024/01/04 06:20:03;;;;;;;8.18;0.93;;;9.60;99.90;;;;;;4953439;28;20031;-92
2024/01/04 06:22:28;;;;;;;9.20;1.08;;;9.70;99.90;;;;;;4953907;28;20040;-75
2024/01/04 06:24:54;;;;;;;5.97;1.33;;;9.70;99.90;;;;;;4955129;28;20033;-75
2024/01/04 06:27:20;;;;;;;5.43;0.90;;;9.70;99.90;;;;;;4953251;28;20031;-76
2024/01/04 06:29:45;;;;;;;9.27;1.20;;;9.70;99.90;;;;;;4953553;29;20054;-76
2024/01/04 06:32:11;;;;;;;5.47;1.02;;;9.70;99.90;;;;;;4953208;28;20039;-75
2024/01/04 06:34:36;;;;;;;6.50;0.95;;;9.70;99.90;;;;;;4954720;28;20024;-75
2024/01/04 06:37:03;;;;;;;5.55;0.80;;;9.70;99.90;;;;;;4953299;28;20058;-76
2024/01/04 06:39:29;;;;;;;2.55;0.60;;;9.70;99.90;;;;;;4954898;28;20054;-75
2024/01/04 06:41:56;;;;;;;6.85;1.15;;;9.70;99.90;;;;;;4953473;29;20065;-75
2024/01/04 06:44:22;;;;;;;4.45;0.80;;;9.70;99.90;;;;;;4953058;29;20050;-75
2024/01/04 06:46:47;;;;;;;6.30;0.90;;;9.60;99.90;;;;;;4953417;29;20465;-75
2024/01/04 06:49:13;;;;;;;6.80;1.20;;;9.60;99.90;;;;;;4953230;28;20030;-76
2024/01/04 06:51:39;;;;;;;3.40;0.60;;;9.60;99.90;;;;;;4953607;29;20027;-76
2024/01/04 06:54:04;;;;;;;5.03;1.60;;;9.60;99.90;;;;;;4953529;28;20089;-76
2024/01/04 06:56:30;;;;;;;3.78;0.88;;;9.60;99.90;;;;;;4953318;28;20381;-76
2024/01/04 06:58:56;;;;;;;5.10;1.00;;;9.60;99.90;;;;;;4953807;28;20031;-76
2024/01/04 07:01:21;;;;;;;9.73;1.00;;;9.60;99.90;;;;;;4956805;28;20027;-76
2024/01/04 07:03:48;;;;;;;7.38;1.30;;;9.50;99.90;;;;;;4957291;28;20114;-76
2024/01/04 07:06:13;;;;;;;3.83;0.63;;;9.50;99.90;;;;;;4956922;28;20035;-76
2024/01/04 07:08:39;;;;;;;3.67;0.80;;;9.50;99.90;;;;;;4957057;28;20058;-76
2024/01/04 07:11:05;;;;;;;9.95;1.48;;;9.40;99.90;;;;;;4958517;28;20087;-76
2024/01/04 07:13:33;;;;;;;5.75;0.82;;;9.40;99.90;;;;;;4957246;29;20031;-76
2024/01/04 07:15:59;;;;;;;6.95;1.05;;;9.50;99.90;;;;;;4956923;28;20057;-76
2024/01/04 07:18:24;;;;;;;6.35;0.80;;;9.40;99.90;;;;;;4956741;28;20055;-76
2024/01/04 07:20:50;;;;;;;6.45;1.23;;;9.40;99.90;;;;;;4956857;28;20035;-76
2024/01/04 07:23:17;;;;;;;6.47;1.08;;;9.40;99.90;;;;;;4957708;28;20106;-77
2024/01/04 07:25:42;;;;;;;5.68;0.90;;;9.50;99.90;;;;;;4957147;28;20031;-77
2024/01/04 07:28:08;;;;;;;7.53;1.08;;;9.50;99.90;;;;;;4957899;28;20027;-77
2024/01/04 07:30:35;;;;;;;9.85;1.05;;;9.50;99.90;;;;;;4958236;28;20035;-76
2024/01/04 07:33:00;;;;;;;6.18;0.98;;;9.50;99.90;;;;;;4957078;28;20035;-76
2024/01/04 07:35:26;;;;;;;5.65;1.00;;;9.50;99.90;;;;;;4956052;29;20362;-76
2024/01/04 07:37:51;;;;;;;6.88;1.00;;;9.50;99.90;;;;;;4970242;28;20117;-74
2024/01/04 07:40:17;;;;;;;6.63;0.95;;;9.50;99.90;;;;;;4959430;28;20027;-74
2024/01/04 07:42:43;;;;;;;5.30;1.08;;;9.50;99.90;;;;;;4977400;28;20070;-74
2024/01/04 07:45:09;;;;;;;7.40;1.23;;;9.50;99.90;;;;;;4959016;28;20030;-84
2024/01/04 07:47:37;;;;;;;5.40;1.48;;;9.50;99.90;;;;;;4975849;28;20027;-76
2024/01/04 07:50:04;;;;;;;6.40;0.95;;;9.50;99.90;;;;;;4959751;28;20118;-76
2024/01/04 07:52:29;;;;;;;5.32;1.02;;;9.50;99.90;;;;;;4975515;28;20034;-76
2024/01/04 07:54:55;;;;;;;7.30;0.77;;;9.60;99.90;;;;;;4976675;28;20037;-76
2024/01/04 07:57:20;;;;;;;3.88;0.98;;;9.60;99.90;;;;;;4976876;28;20039;-77
2024/01/04 07:59:46;;;;;;;4.95;1.10;;;9.60;99.90;;;;;;4959726;28;20038;-76
2024/01/04 08:02:12;;;;;;;2.55;0.60;;;9.60;99.90;;;;;;4959055;28;20031;-76
2024/01/04 08:04:37;;;;;;;6.03;1.17;;;9.50;99.90;;;;;;4976774;28;20053;-76
2024/01/04 08:07:03;;;;;;;5.72;1.10;;;9.60;99.90;;;;;;4975379;28;20106;-76
2024/01/04 08:09:29;;;;;;;4.75;1.08;;;9.60;99.90;;;;;;4976247;28;20387;-76
2024/01/04 08:11:54;;;;;;;4.45;0.80;;;9.60;99.90;;;;;;4958242;28;20034;-76
2024/01/04 08:14:20;;;;;;;6.68;1.13;;;9.60;99.90;;;;;;4976404;28;20023;-76
2024/01/04 08:16:45;;;;;;;8.88;1.02;;;9.70;99.90;;;;;;4959489;28;20031;-76
2024/01/04 08:19:12;;;;;;;3.60;0.93;;;9.70;99.90;;;;;;4976283;28;20038;-76
2024/01/04 08:21:37;;;;;;;6.45;1.35;;;9.70;99.90;;;;;;4976500;28;20027;-76
2024/01/04 08:24:03;;;;;;;5.28;1.40;;;9.70;99.90;;;;;;4976385;28;20038;-76
2024/01/04 08:26:29;;;;;;;5.75;1.15;;;9.70;99.90;;;;;;4975985;28;20022;-76
2024/01/04 08:28:54;;;;;;;5.15;0.80;;;9.70;99.90;;;;;;4976420;28;20031;-76
2024/01/04 08:31:20;;;;;;;6.07;1.10;;;9.80;99.90;;;;;;4958490;28;20472;-76
2024/01/04 08:33:46;;;;;;;8.63;1.48;;;9.80;99.90;;;;;;4959059;28;20113;-76
2024/01/04 08:36:11;;;;;;;5.72;0.90;;;9.80;99.90;;;;;;4958606;28;20027;-80
2024/01/04 08:38:37;;;;;;;6.57;1.00;;;9.80;99.90;;;;;;4958832;28;20054;-75
2024/01/04 08:41:03;;;;;;;3.15;1.10;;;9.80;99.90;;;;;;4959098;28;20465;-75
2024/01/04 08:43:28;;;;;;;5.25;0.95;;;9.80;99.90;;;;;;4958317;28;20035;-75
2024/01/04 08:45:54;;;;;;;7.00;0.85;;;9.80;99.90;;;;;;4975985;28;20113;-75
2024/01/04 08:48:19;;;;;;;5.30;1.05;;;9.80;99.90;;;;;;4975858;28;20078;-75
2024/01/04 08:50:45;;;;;;;11.52;1.17;;;9.80;99.90;;;;;;4958778;28;20181;-76
2024/01/04 08:53:13;;;;;;;4.93;0.85;;;9.80;99.90;;;;;;4958812;28;20031;-75
2024/01/04 08:55:38;;;;;;;8.30;1.05;;;9.80;99.90;;;;;;4958852;28;20400;-75
2024/01/04 08:58:04;;;;;;;6.18;0.82;;;9.70;99.90;;;;;;4974306;28;20027;-76
2024/01/04 09:00:32;;;;;;;2.72;0.82;;;9.70;99.90;;;;;;4958161;28;20091;-75
2024/01/04 09:02:58;;;;;;;7.20;1.42;;;9.70;99.90;;;;;;4958445;28;20399;-75
2024/01/04 09:05:24;;;;;;;6.68;2.20;;;9.60;99.90;;;;;;4958227;28;20035;-75
2024/01/04 09:07:50;;;;;;;6.22;1.00;;;9.60;99.90;;;;;;4958746;28;20576;-75
2024/01/04 09:10:16;;;;;;;3.85;1.00;;;9.60;99.90;;;;;;4958006;28;20035;-76
2024/01/04 09:12:42;;;;;;;10.07;1.33;;;9.50;99.90;;;;;;4974575;28;20042;-75
2024/01/04 09:15:09;;;;;;;7.68;1.50;;;9.40;99.90;;;;;;4958368;28;20404;-75
2024/01/04 09:17:35;;;;;;;8.10;1.13;;;9.40;99.90;;;;;;4975174;28;20030;-76
2024/01/04 09:20:00;;;;;;;4.90;0.90;;;9.30;99.90;;;;;;4958241;28;20023;-75
2024/01/04 09:22:26;;;;;;;6.93;0.70;;;9.30;99.90;;;;;;4974746;28;20027;-76
2024/01/04 09:24:51;;;;;;;7.63;1.50;;;9.30;99.90;;;;;;4974310;28;20035;-76
2024/01/04 09:27:17;;;;;;;4.95;1.10;;;9.30;99.90;;;;;;4975127;28;20023;-76
2024/01/04 09:29:46;;;;;;;6.15;1.20;;;9.40;99.90;;;;;;4974415;28;20035;-76
2024/01/04 09:32:13;;;;;;;8.60;1.40;;;9.50;99.90;;;;;;4973779;28;20042;-76
2024/01/04 09:34:38;;;;;;;7.50;1.35;;;9.50;99.90;;;;;;4957371;28;20027;-76
2024/01/04 09:37:04;;;;;;;6.60;1.00;;;9.50;99.90;;;;;;4974720;28;20058;-76
2024/01/04 09:39:29;;;;;;;5.47;0.95;;;9.60;99.90;;;;;;4973435;28;20464;-76
2024/01/04 09:41:56;;;;;;;7.68;1.00;;;9.60;99.90;;;;;;4975357;28;20058;-76
2024/01/04 09:44:24;;;;;;;14.15;1.02;;;9.70;99.90;;;;;;4957348;28;20027;-76
2024/01/04 09:46:54;;;;;;;6.68;0.70;;;9.70;99.90;;;;;;4957703;28;20027;-75
2024/01/04 09:49:20;;;;;;;5.60;1.10;;;9.70;99.90;;;;;;4974515;28;20027;-76
2024/01/04 09:51:47;;;;;;;8.77;1.10;;;9.70;99.90;;;;;;4974930;28;20388;-76
2024/01/04 09:54:13;;;;;;;4.53;1.17;;;9.70;99.90;;;;;;4973721;28;20022;-76
2024/01/04 09:56:42;;;;;;;12.02;0.90;;;9.70;99.90;;;;;;4956998;28;20118;-76
2024/01/04 09:59:08;;;;;;;8.05;1.08;;;9.80;99.90;;;;;;4974978;28;20030;-76
2024/01/04 10:01:36;;;;;;;8.00;0.98;;;9.70;99.90;;;;;;4957021;28;20082;-76
2024/01/04 10:04:13;;;;;;;13.68;1.65;;;9.80;99.90;;;;;;4974662;28;20027;-75
2024/01/04 10:06:40;;;;;;;7.80;1.00;;;9.80;99.90;;;;;;4974613;28;20483;-76
2024/01/04 10:09:21;;;;;;;4.20;1.42;;;9.70;99.90;;;;;;4974666;28;20487;-76
2024/01/04 10:11:57;;;;;;;6.75;1.08;;;9.70;99.90;;;;;;4974660;28;20038;-76
2024/01/04 10:14:27;;;;;;;4.40;0.80;;;9.70;99.90;;;;;;4956797;28;20035;-76
2024/01/04 10:16:53;;;;;;;4.15;1.00;;;9.80;99.90;;;;;;4974291;28;20110;-76
2024/01/04 10:19:19;;;;;;;5.28;1.02;;;9.80;99.90;;;;;;4956868;28;20392;-76
2024/01/04 10:21:45;;;;;;;10.88;1.08;;;9.80;99.90;;;;;;4957186;28;20033;-76
2024/01/04 10:24:20;;;;;;;4.38;0.85;;;9.90;99.90;;;;;;4973188;28;20031;-76
2024/01/04 10:26:53;;;;;;;5.78;0.90;;;9.90;99.90;;;;;;4957224;28;20062;-76
2024/01/04 10:29:20;;;;;;;3.92;0.65;;;10.00;99.90;;;;;;4973826;28;20480;-77
2024/01/04 10:31:46;;;;;;;5.60;1.20;;;10.00;99.90;;;;;;4957160;28;20053;-75
2024/01/04 10:34:17;;;;;;;6.85;0.98;;;10.00;99.90;;;;;;4973728;28;20539;-75
2024/01/04 10:36:42;;;;;;;6.80;1.00;;;9.90;99.90;;;;;;4956376;28;20082;-76
2024/01/04 10:39:08;;;;;;;4.50;1.05;;;10.00;99.90;;;;;;4972966;28;20296;-76
2024/01/04 10:41:34;;;;;;;3.35;0.85;;;10.00;99.90;;;;;;4974079;28;20030;-76
2024/01/04 10:44:07;;;;;;;3.30;0.82;;;10.00;99.90;;;;;;4956928;28;20034;-75
2024/01/04 10:46:36;;;;;;;2.42;0.80;;;10.10;99.90;;;;;;4956380;28;20089;-76
2024/01/04 10:49:03;;;;;;;5.32;0.73;;;10.20;99.90;;;;;;4956812;28;20027;-75
2024/01/04 10:51:32;;;;;;;5.05;1.13;;;10.20;99.90;;;;;;4956379;28;20388;-76
2024/01/04 10:54:02;;;;;;;3.85;0.77;;;10.10;99.90;;;;;;4956742;28;20139;-76
2024/01/04 10:56:35;;;;;;;6.78;1.20;;;10.00;99.90;;;;;;4956175;28;20408;-76
2024/01/04 10:59:03;;;;;;;2.88;0.70;;;10.00;99.90;;;;;;4972583;28;20031;-76
2024/01/04 11:01:29;;;;;;;4.20;0.80;;;10.10;99.90;;;;;;4972289;28;20038;-76
2024/01/04 11:03:55;;;;;;;4.40;1.10;;;10.10;99.90;;;;;;4956601;28;20034;-75
2024/01/04 11:06:28;;;;;;;3.95;0.70;;;10.10;99.90;;;;;;4973596;28;20031;-76
2024/01/04 11:08:57;;;;;;;6.13;0.75;;;10.10;99.90;;;;;;4956773;28;20365;-75
2024/01/04 11:11:27;;;;;;;3.55;0.82;;;10.10;99.90;;;;;;4956162;28;20031;-76
2024/01/04 11:13:53;;;;;;;5.22;1.15;;;10.10;99.90;;;;;;4973950;28;20099;-76
2024/01/04 11:16:46;;;;;;;4.88;0.73;;;10.00;99.90;;;;;;4956253;28;20035;-76
2024/01/04 11:19:40;;;;;;;4.22;1.15;;;10.00;99.90;;;;;;4973945;28;20023;-75
2024/01/04 11:22:31;;;;;;;3.95;0.73;;;9.90;99.90;;;;;;4956583;28;20069;-75
2024/01/04 11:25:06;;;;;;;2.38;0.82;;;10.00;99.90;;;;;;4973796;28;20085;-75
2024/01/04 11:27:33;;;;;;;4.22;0.75;;;9.90;99.90;;;;;;4973255;28;20031;-76
2024/01/04 11:29:59;;;;;;;3.35;0.85;;;9.80;99.90;;;;;;4973697;28;20555;-76
2024/01/04 11:32:26;;;;;;;2.20;0.50;;;9.70;99.90;;;;;;4972030;28;20122;-76
2024/01/04 11:34:51;;;;;;;3.97;0.90;;;9.70;99.90;;;;;;4973441;28;20439;-75
2024/01/04 11:37:22;;;;;;;4.38;0.95;;;9.60;99.90;;;;;;4973363;28;20130;-76
2024/01/04 11:39:57;;;;;;;5.07;0.95;;;9.60;99.90;;;;;;4973710;28;20034;-76
2024/01/04 11:42:40;;;;;;;5.05;0.85;;;9.60;99.90;;;;;;4955959;28;20031;-77
2024/01/04 11:45:14;;;;;;;3.22;0.85;;;9.60;99.90;;;;;;4957437;28;20499;-76
2024/01/04 11:47:42;;;;;;;7.07;1.38;;;9.50;99.90;;;;;;4959484;28;20095;-75
2024/01/04 11:50:22;;;;;;;5.00;1.00;;;9.60;99.90;;;;;;4977188;28;20031;-76
2024/01/04 11:53:01;;;;;;;2.78;0.80;;;9.60;99.90;;;;;;4959849;28;20031;-75
2024/01/04 11:55:27;;;;;;;6.20;1.10;;;9.60;99.90;;;;;;4959405;28;20461;-76
2024/01/04 11:58:13;;;;;;;4.18;0.90;;;9.70;99.90;;;;;;4977058;28;20054;-76
2024/01/04 12:00:42;;;;;;;3.22;0.70;;;9.70;99.90;;;;;;4976306;28;20444;-75
2024/01/04 12:03:15;;;;;;;7.15;1.15;;;9.80;99.90;;;;;;4976793;28;20523;-75
2024/01/04 12:05:43;;;;;;;4.72;0.80;;;10.00;99.90;;;;;;4959030;28;20031;-76
2024/01/04 12:08:09;;;;;;;6.25;1.27;;;10.10;99.90;;;;;;4976896;28;20464;-75
2024/01/04 12:10:34;;;;;;;3.55;0.88;;;10.30;99.90;;;;;;4959087;28;20033;-75
2024/01/04 12:13:00;;;;;;;7.20;0.85;;;10.60;99.90;;;;;;4959520;28;20495;-76
2024/01/04 12:15:25;;;;;;;7.82;1.08;;;10.60;99.90;;;;;;4975103;28;20030;-76
2024/01/04 12:17:51;;;;;;;6.55;0.90;;;10.50;99.90;;;;;;4976740;28;20034;-76
2024/01/04 12:20:17;;;;;;;3.25;1.00;;;10.60;99.90;;;;;;4959446;28;20358;-75
2024/01/04 12:22:43;;;;;;;7.82;0.90;;;10.70;99.90;;;;;;4958722;28;20384;-75
2024/01/04 12:25:09;;;;;;;7.35;1.05;;;10.70;99.90;;;;;;4976279;28;20027;-75
2024/01/04 12:27:36;;;;;;;6.57;1.58;;;10.70;99.90;;;;;;4976073;28;20035;-75
2024/01/04 12:30:05;;;;;;;7.43;1.10;;;10.80;99.90;;;;;;4976472;28;20037;-75
2024/01/04 12:32:32;;;;;;;8.85;1.17;;;10.90;99.90;;;;;;4958805;28;20030;-76
2024/01/04 12:35:01;;;;;;;5.82;1.08;;;10.50;99.90;;;;;;4959269;28;20125;-75
2024/01/04 12:37:27;;;;;;;7.57;1.20;;;10.30;99.90;;;;;;4974111;28;20055;-76
2024/01/04 12:39:52;;;;;;;6.28;0.80;;;10.20;99.90;;;;;;4959020;28;20034;-75
2024/01/04 12:42:18;;;;;;;8.73;0.90;;;10.10;99.90;;;;;;4958609;28;20042;-75
2024/01/04 12:44:48;;;;;;;7.32;1.00;;;10.10;99.90;;;;;;4974555;28;20031;-75
2024/01/04 12:47:20;;;;;;;3.63;0.90;;;10.20;99.90;;;;;;4975148;28;20424;-75
2024/01/04 12:49:57;;;;;;;7.03;1.15;;;10.30;99.90;;;;;;4958418;28;20086;-75
2024/01/04 12:52:23;;;;;;;7.47;1.05;;;10.30;99.90;;;;;;4958962;28;20066;-75